Montgomery, Vermont
Current Conditions -  °F | °C
As of 6:15 PM on Wednesday 26 Nov 2014 (Local Time) from KEFK Reporting Station
Moderate Snow Moderate Snow  
Wind Chill: 16°   Ceiling: 500
Heat Index: 27°   Visibility: 1mi
Dew Point: 26°   Wind: 13mph
Humidity: 94%   Direction: 20°NNE
Pressure: 30.05"   Gusts: NA
Location:  44.9°N, 72.64°W
Report Text: KEFK 262315Z AUTO 02011KT 1SM SN OVC005 M03/M04 A3005 RMK AO2 T10271036
Loading
Personal Weather Stations






























Interactive Weather Map New forecast layout! Learn more

10-Day Weather Forecast

Advertisements
Track Severe Weather on mobile